createdAt,value
2022-07-28T00:00:27.876Z,99.90
2022-07-28T00:02:56.201Z,99.90
2022-07-28T00:05:24.541Z,99.90
2022-07-28T00:07:52.839Z,99.90
2022-07-28T00:10:21.163Z,99.90
2022-07-28T00:12:51.073Z,99.90
2022-07-28T00:15:19.275Z,99.90
2022-07-28T00:17:47.603Z,99.90
2022-07-28T00:20:15.883Z,99.90
2022-07-28T00:22:44.463Z,99.90
2022-07-28T00:25:13.670Z,99.90
2022-07-28T00:27:42.044Z,99.90
2022-07-28T00:30:13.636Z,99.90
2022-07-28T00:32:41.916Z,99.90
2022-07-28T00:35:10.614Z,99.90
2022-07-28T00:37:40.071Z,99.90
2022-07-28T00:40:09.839Z,99.90
2022-07-28T00:42:38.192Z,99.90
2022-07-28T00:45:08.211Z,99.90
2022-07-28T00:47:37.976Z,99.90
2022-07-28T00:50:07.100Z,99.90
2022-07-28T00:52:35.728Z,99.90
2022-07-28T00:55:05.683Z,99.90
2022-07-28T00:57:34.004Z,99.90
2022-07-28T01:00:02.307Z,99.90
2022-07-28T01:02:30.722Z,99.90
2022-07-28T01:05:00.568Z,99.90
2022-07-28T01:07:37.802Z,99.90
2022-07-28T01:10:14.209Z,99.90
2022-07-28T01:12:52.102Z,99.90
2022-07-28T01:15:26.686Z,99.90
2022-07-28T01:18:03.609Z,99.90
2022-07-28T01:20:38.413Z,99.90
2022-07-28T01:23:25.958Z,99.90
2022-07-28T01:26:13.721Z,99.90
2022-07-28T01:28:53.525Z,99.90
2022-07-28T01:31:26.736Z,99.90
2022-07-28T01:34:00.825Z,99.90
2022-07-28T01:36:34.420Z,99.90
2022-07-28T01:39:03.657Z,99.90
2022-07-28T01:41:34.167Z,99.90
2022-07-28T01:44:06.155Z,99.90
2022-07-28T01:46:38.529Z,99.90
2022-07-28T01:49:11.026Z,99.90
2022-07-28T01:51:41.299Z,99.90
2022-07-28T01:54:12.463Z,99.90
2022-07-28T01:56:42.757Z,99.90
2022-07-28T01:59:12.234Z,99.90
2022-07-28T02:01:45.374Z,99.90
2022-07-28T02:04:19.921Z,99.90
2022-07-28T02:06:49.827Z,99.90
2022-07-28T02:09:20.833Z,99.90
2022-07-28T02:11:53.931Z,99.90
2022-07-28T02:14:25.223Z,99.90
2022-07-28T02:16:58.035Z,99.90
2022-07-28T02:19:29.703Z,99.90
2022-07-28T02:21:58.581Z,99.90
2022-07-28T02:24:29.731Z,99.90
2022-07-28T02:27:02.509Z,99.90
2022-07-28T02:29:52.478Z,99.90
2022-07-28T02:32:28.629Z,99.90
2022-07-28T02:35:04.795Z,99.90
2022-07-28T02:37:37.982Z,99.90
2022-07-28T02:40:10.326Z,99.90
2022-07-28T02:42:40.953Z,99.90
2022-07-28T02:45:13.082Z,99.90
2022-07-28T02:47:47.765Z,99.90
2022-07-28T02:50:21.503Z,99.90
2022-07-28T02:52:51.252Z,99.90
2022-07-28T02:55:20.318Z,99.90
2022-07-28T02:57:54.741Z,99.90
2022-07-28T03:00:26.775Z,99.90
2022-07-28T03:02:56.408Z,99.90
2022-07-28T03:05:26.674Z,99.90
2022-07-28T03:07:56.666Z,99.90
2022-07-28T03:10:33.989Z,99.90
2022-07-28T03:13:05.365Z,99.90
2022-07-28T03:15:34.003Z,99.90
2022-07-28T03:18:03.388Z,99.90
2022-07-28T03:20:33.311Z,99.90
2022-07-28T03:23:02.198Z,99.90
2022-07-28T03:25:38.342Z,99.90
2022-07-28T03:28:09.281Z,99.90
2022-07-28T03:30:42.831Z,99.90
2022-07-28T03:33:11.426Z,99.90
2022-07-28T03:35:45.567Z,99.90
2022-07-28T03:38:18.020Z,99.90
2022-07-28T03:40:47.530Z,99.90
2022-07-28T03:43:17.663Z,99.90
2022-07-28T03:45:47.815Z,99.90
2022-07-28T03:48:16.768Z,99.90
2022-07-28T03:50:46.417Z,99.90
2022-07-28T03:53:21.002Z,99.90
2022-07-28T03:55:51.002Z,99.90
2022-07-28T03:58:20.185Z,99.90
2022-07-28T04:00:49.551Z,99.90
2022-07-28T04:03:34.972Z,99.90
2022-07-28T04:06:08.420Z,99.90
2022-07-28T04:08:36.700Z,99.90
2022-07-28T04:11:05.070Z,99.90
2022-07-28T04:13:34.690Z,99.90
2022-07-28T04:16:03.124Z,99.90
2022-07-28T04:18:31.437Z,99.90
2022-07-28T04:21:00.170Z,99.90
2022-07-28T04:23:30.830Z,99.90
2022-07-28T04:25:59.207Z,99.90
2022-07-28T04:28:27.520Z,99.90
2022-07-28T04:30:55.809Z,99.90
2022-07-28T04:33:24.955Z,99.90
2022-07-28T04:35:53.648Z,99.90
2022-07-28T04:38:21.937Z,99.90
2022-07-28T04:40:51.696Z,99.90
2022-07-28T04:43:20.014Z,99.90
2022-07-28T04:45:53.501Z,99.90
2022-07-28T04:48:23.802Z,99.90
2022-07-28T04:50:53.224Z,99.90
2022-07-28T04:53:22.414Z,99.90
2022-07-28T04:55:54.807Z,99.90
2022-07-28T04:58:23.662Z,99.90
2022-07-28T05:00:53.223Z,99.90
2022-07-28T05:03:21.947Z,99.90
2022-07-28T05:05:54.662Z,99.90
2022-07-28T05:08:26.313Z,99.90
2022-07-28T05:10:56.965Z,99.90
2022-07-28T05:13:30.287Z,99.90
2022-07-28T05:16:01.648Z,99.90
2022-07-28T05:18:30.062Z,99.90
2022-07-28T05:20:58.335Z,99.90
2022-07-28T05:23:26.812Z,99.90
2022-07-28T05:25:56.668Z,99.90
2022-07-28T05:28:24.967Z,99.90
2022-07-28T05:30:54.183Z,99.90
2022-07-28T05:33:22.455Z,99.90
2022-07-28T05:35:54.530Z,99.90
2022-07-28T05:38:22.858Z,99.90
2022-07-28T05:40:51.773Z,99.90
2022-07-28T05:43:22.336Z,99.90
2022-07-28T05:45:50.752Z,99.90
2022-07-28T05:48:20.121Z,99.90
2022-07-28T05:50:48.923Z,99.90
2022-07-28T05:53:17.636Z,99.90
2022-07-28T05:55:59.799Z,99.90
2022-07-28T05:58:31.723Z,99.90
2022-07-28T06:01:01.506Z,99.90
2022-07-28T06:03:32.157Z,99.90
2022-07-28T06:06:14.801Z,99.90
2022-07-28T06:08:45.505Z,99.90
2022-07-28T06:11:21.636Z,99.90
2022-07-28T06:13:52.552Z,99.90
2022-07-28T06:16:22.822Z,99.90
2022-07-28T06:18:52.236Z,99.90
2022-07-28T06:21:20.497Z,99.90
2022-07-28T06:23:48.786Z,99.90
2022-07-28T06:26:17.065Z,99.90
2022-07-28T06:28:45.400Z,99.90
2022-07-28T06:31:15.207Z,99.90
2022-07-28T06:33:43.450Z,99.90
2022-07-28T06:36:11.792Z,99.90
2022-07-28T06:38:40.005Z,99.90
2022-07-28T06:41:08.772Z,99.90
2022-07-28T06:43:39.178Z,99.90
2022-07-28T06:46:08.190Z,99.90
2022-07-28T06:48:39.545Z,99.90
2022-07-28T06:51:07.967Z,99.90
2022-07-28T06:53:37.434Z,99.90
2022-07-28T06:56:07.600Z,99.90
2022-07-28T06:58:42.080Z,99.90
2022-07-28T07:01:15.021Z,99.90
2022-07-28T07:03:45.218Z,99.90
2022-07-28T07:06:13.444Z,99.90
2022-07-28T07:08:41.843Z,99.90
2022-07-28T07:11:11.601Z,99.90
2022-07-28T07:13:39.840Z,99.90
2022-07-28T07:16:08.120Z,99.90
2022-07-28T07:18:36.650Z,99.90
2022-07-28T07:21:06.395Z,99.90
2022-07-28T07:23:35.468Z,99.90
2022-07-28T07:26:04.454Z,99.90
2022-07-28T07:28:34.275Z,99.90
2022-07-28T07:31:02.628Z,99.90
2022-07-28T07:33:30.971Z,99.90
2022-07-28T07:35:59.232Z,99.90
2022-07-28T07:38:29.408Z,99.90
2022-07-28T07:40:58.441Z,99.90
2022-07-28T07:43:26.874Z,99.90
2022-07-28T07:45:55.160Z,99.90
2022-07-28T07:48:23.596Z,99.90
2022-07-28T07:50:54.020Z,99.90
2022-07-28T07:53:22.942Z,99.90
2022-07-28T07:55:52.811Z,99.90
2022-07-28T07:58:21.410Z,99.90
2022-07-28T08:00:49.791Z,99.90
2022-07-28T08:03:22.493Z,99.90
2022-07-28T08:05:54.844Z,99.90
2022-07-28T08:08:24.076Z,99.90
2022-07-28T08:10:54.418Z,99.90
2022-07-28T08:13:23.224Z,99.90
2022-07-28T08:15:52.011Z,99.90
2022-07-28T08:18:20.632Z,99.90
2022-07-28T08:20:48.922Z,99.90
2022-07-28T08:23:18.742Z,99.90
2022-07-28T08:25:50.101Z,99.90
2022-07-28T08:28:19.897Z,99.90
2022-07-28T08:30:48.507Z,99.90
2022-07-28T08:33:21.909Z,99.90
2022-07-28T08:35:50.551Z,99.90
2022-07-28T08:38:20.069Z,99.90
2022-07-28T08:40:51.641Z,99.90
2022-07-28T08:43:34.228Z,99.90
2022-07-28T08:46:04.342Z,99.90
2022-07-28T08:48:34.422Z,99.90
2022-07-28T08:51:05.152Z,99.90
2022-07-28T08:53:36.099Z,99.90
2022-07-28T08:56:07.653Z,99.90
2022-07-28T08:58:38.769Z,99.90
2022-07-28T09:01:09.387Z,99.90
2022-07-28T09:03:38.334Z,99.90
2022-07-28T09:06:07.182Z,99.90
2022-07-28T09:08:35.736Z,99.90
2022-07-28T09:11:06.303Z,99.90
2022-07-28T09:13:36.966Z,99.90
2022-07-28T09:16:07.522Z,99.90
2022-07-28T09:18:36.416Z,99.90
2022-07-28T09:21:04.954Z,99.90
2022-07-28T09:23:45.114Z,99.90
2022-07-28T09:26:14.211Z,99.90
2022-07-28T09:28:52.171Z,99.90
2022-07-28T09:31:21.320Z,99.90
2022-07-28T09:34:01.622Z,99.90
2022-07-28T09:36:31.117Z,99.90
2022-07-28T09:38:59.539Z,99.90
2022-07-28T09:41:27.984Z,99.90
2022-07-28T09:43:57.596Z,99.90
2022-07-28T09:46:29.459Z,99.90
2022-07-28T09:49:00.413Z,99.90
2022-07-28T09:51:30.676Z,99.90
2022-07-28T09:54:09.944Z,99.90
2022-07-28T09:56:40.190Z,99.90
2022-07-28T09:59:09.951Z,99.90
2022-07-28T10:01:53.661Z,99.90
2022-07-28T10:04:35.635Z,99.90
2022-07-28T10:07:06.682Z,99.90
2022-07-28T10:09:35.443Z,99.90
2022-07-28T10:12:17.811Z,98.70
2022-07-28T10:14:48.401Z,99.80
2022-07-28T10:17:28.358Z,99.90
2022-07-28T10:19:58.482Z,98.70
2022-07-28T10:22:33.416Z,98.60
2022-07-28T10:25:03.803Z,98.90
2022-07-28T10:27:33.761Z,97.70
2022-07-28T10:30:06.399Z,96.50
2022-07-28T10:32:39.074Z,96.50
2022-07-28T10:35:11.217Z,98.10
2022-07-28T10:37:42.188Z,98.50
2022-07-28T10:40:12.632Z,97.20
2022-07-28T10:42:41.645Z,97.40
2022-07-28T10:45:12.298Z,98.20
2022-07-28T10:47:40.886Z,98.40
2022-07-28T10:50:10.414Z,96.60
2022-07-28T10:52:50.667Z,96.90
2022-07-28T10:55:32.020Z,97.30
2022-07-28T10:58:11.175Z,97.10
2022-07-28T11:01:01.810Z,96.80
2022-07-28T11:03:42.975Z,96.80
2022-07-28T11:06:29.253Z,96.50
2022-07-28T11:09:00.126Z,97.10
2022-07-28T11:11:50.045Z,97.80
2022-07-28T11:14:34.020Z,97.80
2022-07-28T11:17:24.588Z,96.70
2022-07-28T11:20:27.107Z,96.90
2022-07-28T11:22:51.907Z,96.10
2022-07-28T11:25:22.223Z,96.40
2022-07-28T11:28:05.001Z,95.90
2022-07-28T11:30:55.762Z,95.70
2022-07-28T11:33:27.571Z,96.00
2022-07-28T11:35:59.021Z,95.70
2022-07-28T11:38:28.175Z,96.30
2022-07-28T11:40:57.696Z,96.00
2022-07-28T11:43:39.232Z,96.20
2022-07-28T11:46:24.955Z,96.00
2022-07-28T11:49:27.706Z,96.00
2022-07-28T11:52:23.348Z,95.60
2022-07-28T11:54:54.400Z,95.50
2022-07-28T11:57:27.446Z,96.60
2022-07-28T12:00:00.006Z,96.40
2022-07-28T12:02:31.482Z,96.00
2022-07-28T12:05:08.360Z,96.40
2022-07-28T12:07:45.820Z,96.60
2022-07-28T12:13:27.963Z,96.60
2022-07-28T12:15:56.524Z,96.10
2022-07-28T12:18:25.266Z,96.20
2022-07-28T12:20:55.881Z,97.10
2022-07-28T12:23:38.765Z,97.20
2022-07-28T12:26:12.670Z,96.50
2022-07-28T12:28:51.576Z,95.30
2022-07-28T12:31:20.002Z,95.60
2022-07-28T12:33:52.233Z,96.00
2022-07-28T12:36:24.296Z,94.90
2022-07-28T12:38:53.568Z,94.90
2022-07-28T12:41:22.164Z,96.20
2022-07-28T12:43:51.660Z,95.50
2022-07-28T12:46:25.167Z,94.60
2022-07-28T12:48:58.306Z,94.70
2022-07-28T12:51:38.642Z,94.60
2022-07-28T12:54:08.498Z,94.60
2022-07-28T12:56:46.792Z,94.30
2022-07-28T12:59:15.278Z,94.20
2022-07-28T13:01:51.547Z,94.30
2022-07-28T13:04:39.689Z,95.30
2022-07-28T13:07:12.881Z,93.60
2022-07-28T13:09:47.162Z,94.10
2022-07-28T13:12:23.288Z,93.90
2022-07-28T13:14:53.614Z,94.10
2022-07-28T13:17:24.265Z,94.60
2022-07-28T13:20:03.568Z,93.60
2022-07-28T13:22:33.993Z,94.30
2022-07-28T13:25:02.253Z,93.60
2022-07-28T13:27:30.610Z,93.70
2022-07-28T13:29:58.819Z,93.40
2022-07-28T13:32:27.691Z,93.90
2022-07-28T13:34:57.099Z,93.10
2022-07-28T13:37:25.372Z,93.10
2022-07-28T13:39:55.039Z,93.70
2022-07-28T13:42:23.708Z,93.40
2022-07-28T13:44:52.351Z,92.70
2022-07-28T13:47:20.939Z,92.80
2022-07-28T13:49:49.438Z,93.00
2022-07-28T13:52:32.937Z,92.60
2022-07-28T13:55:06.246Z,92.70
2022-07-28T13:57:37.858Z,92.90
2022-07-28T14:00:12.390Z,92.70
2022-07-28T14:02:44.081Z,93.80
2022-07-28T14:05:13.035Z,93.70
2022-07-28T14:07:41.324Z,93.60
2022-07-28T14:10:12.288Z,93.00
2022-07-28T14:12:41.756Z,93.60
2022-07-28T14:15:13.427Z,92.80
2022-07-28T14:17:43.989Z,93.80
2022-07-28T14:20:14.793Z,93.10
2022-07-28T14:22:43.324Z,93.40
2022-07-28T14:25:20.535Z,93.80
2022-07-28T14:27:49.932Z,93.70
2022-07-28T14:30:19.588Z,93.20
2022-07-28T14:32:48.043Z,93.50
2022-07-28T14:35:16.541Z,93.60
2022-07-28T14:38:35.124Z,93.30
2022-07-28T14:40:38.173Z,93.20
2022-07-28T14:43:08.891Z,93.00
2022-07-28T14:46:01.595Z,93.80
2022-07-28T14:48:26.030Z,93.40
2022-07-28T14:50:55.581Z,93.50
2022-07-28T14:53:24.159Z,93.90
2022-07-28T14:55:57.714Z,93.40
2022-07-28T14:58:26.057Z,93.60
2022-07-28T15:00:54.755Z,94.40
2022-07-28T15:03:23.100Z,94.10
2022-07-28T15:05:51.400Z,93.80
2022-07-28T15:08:19.710Z,94.00
2022-07-28T15:10:53.637Z,93.70
2022-07-28T15:13:23.464Z,94.10
2022-07-28T15:15:51.740Z,94.70
2022-07-28T15:18:20.047Z,94.80
2022-07-28T15:20:49.331Z,94.10
2022-07-28T15:23:17.642Z,94.20
2022-07-28T15:25:47.533Z,94.60
2022-07-28T15:28:17.795Z,94.10
2022-07-28T15:30:52.934Z,94.30
2022-07-28T15:33:22.269Z,94.40
2022-07-28T15:35:58.705Z,93.30
2022-07-28T15:38:29.441Z,93.60
2022-07-28T15:40:59.770Z,92.90
2022-07-28T15:43:28.247Z,93.10
2022-07-28T15:45:58.339Z,93.50
2022-07-28T15:48:26.629Z,93.20
2022-07-28T15:50:55.053Z,93.50
2022-07-28T15:53:23.347Z,93.50
2022-07-28T15:55:52.029Z,93.50
2022-07-28T15:58:21.033Z,93.20
2022-07-28T16:00:49.589Z,93.80
2022-07-28T16:03:19.346Z,93.30
2022-07-28T16:05:49.952Z,93.30
2022-07-28T16:08:22.936Z,93.60
2022-07-28T16:10:52.771Z,93.00
2022-07-28T16:13:33.314Z,93.10
2022-07-28T16:16:06.815Z,93.20
2022-07-28T16:18:37.942Z,93.90
2022-07-28T16:21:07.785Z,93.70
2022-07-28T16:23:36.574Z,93.40
2022-07-28T16:26:07.894Z,93.70
2022-07-28T16:28:36.605Z,93.80
2022-07-28T16:31:05.624Z,94.10
2022-07-28T16:33:34.150Z,94.30
2022-07-28T16:36:04.278Z,94.80
2022-07-28T16:38:32.615Z,94.80
2022-07-28T16:41:00.860Z,95.00
2022-07-28T16:43:29.347Z,94.60
2022-07-28T16:45:57.791Z,95.00
2022-07-28T16:48:26.212Z,95.00
2022-07-28T16:50:54.857Z,95.20
2022-07-28T16:53:24.474Z,95.40
2022-07-28T16:55:52.897Z,95.30
2022-07-28T16:58:22.254Z,95.40
2022-07-28T17:00:51.301Z,95.40
2022-07-28T17:03:19.681Z,95.80
2022-07-28T17:05:48.537Z,95.50
2022-07-28T17:08:16.788Z,95.70
2022-07-28T17:10:47.749Z,95.80
2022-07-28T17:13:16.904Z,95.80
2022-07-28T17:15:49.500Z,95.70
2022-07-28T17:18:18.607Z,95.90
2022-07-28T17:20:47.122Z,96.00
2022-07-28T17:23:15.614Z,95.80
2022-07-28T17:26:08.524Z,95.90
2022-07-28T17:28:33.876Z,96.40
2022-07-28T17:31:02.299Z,96.10
2022-07-28T17:33:31.349Z,96.40
2022-07-28T17:36:00.241Z,96.60
2022-07-28T17:38:33.038Z,96.70
2022-07-28T17:41:04.196Z,96.60
2022-07-28T17:43:34.951Z,96.70
2022-07-28T17:46:08.374Z,97.10
2022-07-28T17:48:39.113Z,97.40
2022-07-28T17:51:07.770Z,97.10
2022-07-28T17:53:39.464Z,97.10
2022-07-28T17:56:09.167Z,97.60
2022-07-28T17:58:39.874Z,97.70
2022-07-28T18:01:12.679Z,98.00
2022-07-28T18:03:56.943Z,97.90
2022-07-28T18:06:26.925Z,98.10
2022-07-28T18:08:55.172Z,97.70
2022-07-28T18:11:23.472Z,97.90
2022-07-28T18:14:04.348Z,98.00
2022-07-28T18:16:41.407Z,98.00
2022-07-28T18:19:09.655Z,97.70
2022-07-28T18:21:37.953Z,97.70
2022-07-28T18:24:11.502Z,97.70
2022-07-28T18:26:39.877Z,98.00
2022-07-28T18:29:09.511Z,97.60
2022-07-28T18:31:45.524Z,97.90
2022-07-28T18:34:15.287Z,98.10
2022-07-28T18:36:43.989Z,98.10
2022-07-28T18:39:12.575Z,98.20
2022-07-28T18:41:46.640Z,98.30
2022-07-28T18:44:18.852Z,98.60
2022-07-28T18:46:47.882Z,98.90
2022-07-28T18:49:16.704Z,99.00
2022-07-28T18:51:45.940Z,99.20
2022-07-28T18:54:18.678Z,99.40
2022-07-28T18:56:50.062Z,99.40
2022-07-28T18:59:19.831Z,99.60
2022-07-28T19:01:48.271Z,99.90
2022-07-28T19:04:16.907Z,99.90
2022-07-28T19:06:45.593Z,99.90
2022-07-28T19:09:13.922Z,99.90
2022-07-28T19:11:46.019Z,99.90
2022-07-28T19:14:16.111Z,99.90
2022-07-28T19:16:46.215Z,99.90
2022-07-28T19:19:14.640Z,99.90
2022-07-28T19:21:43.732Z,99.90
2022-07-28T19:24:13.412Z,99.90
2022-07-28T19:26:42.943Z,99.90
2022-07-28T19:29:11.381Z,99.90
2022-07-28T19:31:41.434Z,99.90
2022-07-28T19:34:11.666Z,99.90
2022-07-28T19:36:41.698Z,99.90
2022-07-28T19:39:10.509Z,99.90
2022-07-28T19:41:38.882Z,99.90
2022-07-28T19:44:07.222Z,99.90
2022-07-28T19:46:35.727Z,99.90
2022-07-28T19:49:12.096Z,99.90
2022-07-28T19:51:41.785Z,99.90
2022-07-28T19:54:12.785Z,99.90
2022-07-28T19:56:43.766Z,99.90
2022-07-28T19:59:12.414Z,99.90
2022-07-28T20:01:46.056Z,99.90
2022-07-28T20:04:15.997Z,99.90
2022-07-28T20:06:45.837Z,99.90
2022-07-28T20:09:17.138Z,99.90
2022-07-28T20:11:45.421Z,99.90
2022-07-28T20:14:13.932Z,99.90
2022-07-28T20:16:42.742Z,99.90
2022-07-28T20:19:14.842Z,99.90
2022-07-28T20:21:43.151Z,99.90
2022-07-28T20:24:13.353Z,99.90
2022-07-28T20:26:42.122Z,99.90
2022-07-28T20:29:10.449Z,99.90
2022-07-28T20:31:39.371Z,99.90
2022-07-28T20:34:07.784Z,99.90
2022-07-28T20:36:36.125Z,99.90
2022-07-28T20:39:21.139Z,99.90
2022-07-28T20:41:54.114Z,99.90
2022-07-28T20:44:30.658Z,99.90
2022-07-28T20:47:00.517Z,99.90
2022-07-28T20:49:29.299Z,99.90
2022-07-28T20:51:57.849Z,99.90
2022-07-28T20:54:26.252Z,99.90
2022-07-28T20:56:55.916Z,99.90
2022-07-28T20:59:27.594Z,99.90
2022-07-28T21:01:56.573Z,99.90
2022-07-28T21:04:26.398Z,99.90
2022-07-28T21:07:01.800Z,99.90
2022-07-28T21:09:30.672Z,99.90
2022-07-28T21:12:00.441Z,99.90
2022-07-28T21:14:28.881Z,99.90
2022-07-28T21:16:57.206Z,99.90
2022-07-28T21:19:25.782Z,99.90
2022-07-28T21:21:54.089Z,99.90
2022-07-28T21:24:22.420Z,99.90
2022-07-28T21:26:51.677Z,99.90
2022-07-28T21:32:02.273Z,99.90
2022-07-28T21:34:35.008Z,99.90
2022-07-28T21:37:03.736Z,99.90
2022-07-28T21:39:32.693Z,99.90
2022-07-28T21:42:01.255Z,99.90
2022-07-28T21:44:30.882Z,99.90
2022-07-28T21:46:59.190Z,99.90
2022-07-28T21:49:29.245Z,99.90
2022-07-28T21:51:57.548Z,99.90
2022-07-28T21:54:25.786Z,99.90
2022-07-28T21:56:54.066Z,99.90
2022-07-28T21:59:22.339Z,99.90
2022-07-28T22:01:52.007Z,99.90
2022-07-28T22:04:20.870Z,99.90
2022-07-28T22:06:49.409Z,99.90
2022-07-28T22:09:17.845Z,99.90
2022-07-28T22:11:46.502Z,99.90
2022-07-28T22:14:15.119Z,99.90
2022-07-28T22:16:43.765Z,99.90
2022-07-28T22:19:13.484Z,99.90
2022-07-28T22:21:41.817Z,99.90
2022-07-28T22:24:10.301Z,99.90
2022-07-28T22:26:38.657Z,99.90
2022-07-28T22:29:06.883Z,99.90
2022-07-28T22:31:35.221Z,99.90
2022-07-28T22:34:03.534Z,99.90
2022-07-28T22:36:33.274Z,99.90
2022-07-28T22:39:01.721Z,99.90
2022-07-28T22:41:30.279Z,99.90
2022-07-28T22:43:58.504Z,99.90
2022-07-28T22:46:28.930Z,99.90
2022-07-28T22:48:57.290Z,99.90
2022-07-28T22:51:25.587Z,99.90
2022-07-28T22:53:55.309Z,99.90
2022-07-28T22:59:09.697Z,99.90
2022-07-28T23:01:38.577Z,99.90
2022-07-28T23:04:07.612Z,99.90
2022-07-28T23:06:37.143Z,99.90
2022-07-28T23:09:07.986Z,99.90
2022-07-28T23:11:36.333Z,99.90
2022-07-28T23:14:04.947Z,99.90
2022-07-28T23:16:33.319Z,99.90
2022-07-28T23:19:01.721Z,99.90
2022-07-28T23:21:30.612Z,99.90
2022-07-28T23:23:58.877Z,99.90
2022-07-28T23:26:28.559Z,99.90
2022-07-28T23:28:57.236Z,99.90
2022-07-28T23:31:25.730Z,99.90
2022-07-28T23:33:57.521Z,99.90
2022-07-28T23:36:27.867Z,99.90
2022-07-28T23:38:58.831Z,99.90
2022-07-28T23:41:28.779Z,99.90
2022-07-28T23:43:57.179Z,99.90
2022-07-28T23:46:25.617Z,99.90
2022-07-28T23:48:54.452Z,99.90
2022-07-28T23:51:38.322Z,99.90
2022-07-28T23:54:14.603Z,99.90
2022-07-28T23:56:44.745Z,99.90
2022-07-28T23:59:14.541Z,99.90
